sensor_id;sensor_type;location;lat;lon;timestamp;P1;durP1;ratioP1;P2;durP2;ratioP2
50417;SDS011;36346;48.280;14.292;2023-01-09T00:01:22;25.73;;;25.40;;
50417;SDS011;36346;48.280;14.292;2023-01-09T00:03:52;27.51;;;26.98;;
50417;SDS011;36346;48.280;14.292;2023-01-09T00:06:20;35.21;;;34.61;;
50417;SDS011;36346;48.280;14.292;2023-01-09T00:08:48;41.71;;;40.94;;
50417;SDS011;36346;48.280;14.292;2023-01-09T00:11:16;39.93;;;39.12;;
50417;SDS011;36346;48.280;14.292;2023-01-09T00:13:44;36.45;;;35.65;;
50417;SDS011;36346;48.280;14.292;2023-01-09T00:16:13;34.94;;;34.18;;
50417;SDS011;36346;48.280;14.292;2023-01-09T00:18:42;34.82;;;33.98;;
50417;SDS011;36346;48.280;14.292;2023-01-09T00:21:13;35.48;;;34.65;;
50417;SDS011;36346;48.280;14.292;2023-01-09T00:23:41;35.98;;;35.08;;
50417;SDS011;36346;48.280;14.292;2023-01-09T00:26:17;35.52;;;34.86;;
50417;SDS011;36346;48.280;14.292;2023-01-09T00:28:47;36.93;;;36.04;;
50417;SDS011;36346;48.280;14.292;2023-01-09T00:31:16;33.61;;;32.66;;
50417;SDS011;36346;48.280;14.292;2023-01-09T00:33:55;29.67;;;29.05;;
50417;SDS011;36346;48.280;14.292;2023-01-09T00:36:25;27.51;;;26.91;;
50417;SDS011;36346;48.280;14.292;2023-01-09T00:38:54;25.99;;;25.40;;
50417;SDS011;36346;48.280;14.292;2023-01-09T00:41:22;25.50;;;25.01;;
50417;SDS011;36346;48.280;14.292;2023-01-09T00:43:55;25.32;;;24.78;;
50417;SDS011;36346;48.280;14.292;2023-01-09T00:46:32;25.12;;;24.32;;
50417;SDS011;36346;48.280;14.292;2023-01-09T00:49:05;25.57;;;24.81;;
50417;SDS011;36346;48.280;14.292;2023-01-09T00:51:35;25.03;;;24.44;;
50417;SDS011;36346;48.280;14.292;2023-01-09T00:54:04;25.24;;;24.81;;
50417;SDS011;36346;48.280;14.292;2023-01-09T00:56:33;26.61;;;26.16;;
50417;SDS011;36346;48.280;14.292;2023-01-09T00:59:03;26.77;;;26.36;;
50417;SDS011;36346;48.280;14.292;2023-01-09T01:01:31;26.68;;;26.19;;
50417;SDS011;36346;48.280;14.292;2023-01-09T01:03:59;25.23;;;24.82;;
50417;SDS011;36346;48.280;14.292;2023-01-09T01:06:46;23.63;;;23.09;;
50417;SDS011;36346;48.280;14.292;2023-01-09T01:09:33;22.07;;;21.65;;
50417;SDS011;36346;48.280;14.292;2023-01-09T01:12:01;21.31;;;21.00;;
50417;SDS011;36346;48.280;14.292;2023-01-09T01:14:34;20.16;;;19.81;;
50417;SDS011;36346;48.280;14.292;2023-01-09T01:17:03;20.29;;;19.97;;
50417;SDS011;36346;48.280;14.292;2023-01-09T01:19:32;20.00;;;19.86;;
50417;SDS011;36346;48.280;14.292;2023-01-09T01:22:01;19.77;;;19.54;;
50417;SDS011;36346;48.280;14.292;2023-01-09T01:24:30;20.43;;;20.02;;
50417;SDS011;36346;48.280;14.292;2023-01-09T01:26:58;20.11;;;19.82;;
50417;SDS011;36346;48.280;14.292;2023-01-09T01:29:26;19.66;;;19.50;;
50417;SDS011;36346;48.280;14.292;2023-01-09T01:31:54;19.71;;;19.48;;
50417;SDS011;36346;48.280;14.292;2023-01-09T01:34:22;19.80;;;19.53;;
50417;SDS011;36346;48.280;14.292;2023-01-09T01:36:50;21.04;;;20.66;;
50417;SDS011;36346;48.280;14.292;2023-01-09T01:39:18;20.45;;;20.11;;
50417;SDS011;36346;48.280;14.292;2023-01-09T01:41:46;20.40;;;20.12;;
50417;SDS011;36346;48.280;14.292;2023-01-09T01:47:20;20.47;;;20.19;;
50417;SDS011;36346;48.280;14.292;2023-01-09T01:50:13;19.58;;;19.33;;
50417;SDS011;36346;48.280;14.292;2023-01-09T01:52:44;19.83;;;19.49;;
50417;SDS011;36346;48.280;14.292;2023-01-09T01:55:32;18.97;;;18.71;;
50417;SDS011;36346;48.280;14.292;2023-01-09T01:58:02;19.58;;;19.35;;
50417;SDS011;36346;48.280;14.292;2023-01-09T02:00:34;19.79;;;19.43;;
50417;SDS011;36346;48.280;14.292;2023-01-09T02:03:07;19.72;;;19.49;;
50417;SDS011;36346;48.280;14.292;2023-01-09T02:05:35;20.81;;;20.55;;
50417;SDS011;36346;48.280;14.292;2023-01-09T02:08:05;19.69;;;19.44;;
50417;SDS011;36346;48.280;14.292;2023-01-09T02:10:34;19.39;;;19.08;;
50417;SDS011;36346;48.280;14.292;2023-01-09T02:13:05;19.00;;;18.74;;
50417;SDS011;36346;48.280;14.292;2023-01-09T02:29:33;18.56;;;18.32;;
50417;SDS011;36346;48.280;14.292;2023-01-09T02:35:16;18.10;;;17.75;;
50417;SDS011;36346;48.280;14.292;2023-01-09T02:40:38;18.29;;;18.07;;
50417;SDS011;36346;48.280;14.292;2023-01-09T02:43:13;18.28;;;17.96;;
50417;SDS011;36346;48.280;14.292;2023-01-09T02:45:42;17.89;;;17.75;;
50417;SDS011;36346;48.280;14.292;2023-01-09T02:48:11;18.21;;;17.99;;
50417;SDS011;36346;48.280;14.292;2023-01-09T02:50:41;18.02;;;17.75;;
50417;SDS011;36346;48.280;14.292;2023-01-09T03:07:24;17.97;;;17.64;;
50417;SDS011;36346;48.280;14.292;2023-01-09T03:09:59;17.82;;;17.57;;
50417;SDS011;36346;48.280;14.292;2023-01-09T03:12:46;17.55;;;17.30;;
50417;SDS011;36346;48.280;14.292;2023-01-09T03:15:23;17.40;;;17.22;;
50417;SDS011;36346;48.280;14.292;2023-01-09T03:17:55;17.61;;;17.42;;
50417;SDS011;36346;48.280;14.292;2023-01-09T03:20:24;17.82;;;17.63;;
50417;SDS011;36346;48.280;14.292;2023-01-09T03:22:58;17.97;;;17.66;;
50417;SDS011;36346;48.280;14.292;2023-01-09T03:25:28;17.30;;;17.09;;
50417;SDS011;36346;48.280;14.292;2023-01-09T03:28:08;17.17;;;16.78;;
50417;SDS011;36346;48.280;14.292;2023-01-09T03:31:17;17.44;;;17.27;;
50417;SDS011;36346;48.280;14.292;2023-01-09T03:33:45;17.41;;;17.17;;
50417;SDS011;36346;48.280;14.292;2023-01-09T03:36:15;17.75;;;17.45;;
50417;SDS011;36346;48.280;14.292;2023-01-09T03:38:44;17.80;;;17.60;;
50417;SDS011;36346;48.280;14.292;2023-01-09T03:41:38;17.28;;;17.14;;
50417;SDS011;36346;48.280;14.292;2023-01-09T03:44:11;17.56;;;17.46;;
50417;SDS011;36346;48.280;14.292;2023-01-09T03:46:39;18.42;;;18.09;;
50417;SDS011;36346;48.280;14.292;2023-01-09T03:49:07;18.20;;;17.99;;
50417;SDS011;36346;48.280;14.292;2023-01-09T03:51:40;18.28;;;17.98;;
50417;SDS011;36346;48.280;14.292;2023-01-09T03:54:11;18.29;;;18.04;;
50417;SDS011;36346;48.280;14.292;2023-01-09T03:56:39;18.97;;;18.65;;
50417;SDS011;36346;48.280;14.292;2023-01-09T03:59:06;17.76;;;17.57;;
50417;SDS011;36346;48.280;14.292;2023-01-09T04:01:34;17.90;;;17.65;;
50417;SDS011;36346;48.280;14.292;2023-01-09T04:04:02;18.42;;;18.17;;
50417;SDS011;36346;48.280;14.292;2023-01-09T04:06:31;17.95;;;17.77;;
50417;SDS011;36346;48.280;14.292;2023-01-09T04:08:59;18.81;;;18.52;;
50417;SDS011;36346;48.280;14.292;2023-01-09T04:11:26;18.12;;;17.91;;
50417;SDS011;36346;48.280;14.292;2023-01-09T04:13:56;18.24;;;17.94;;
50417;SDS011;36346;48.280;14.292;2023-01-09T04:16:24;18.58;;;18.25;;
50417;SDS011;36346;48.280;14.292;2023-01-09T04:18:52;17.55;;;17.49;;
50417;SDS011;36346;48.280;14.292;2023-01-09T04:21:20;18.71;;;18.59;;
50417;SDS011;36346;48.280;14.292;2023-01-09T04:23:48;18.53;;;18.36;;
50417;SDS011;36346;48.280;14.292;2023-01-09T04:26:16;22.96;;;22.64;;
50417;SDS011;36346;48.280;14.292;2023-01-09T04:28:44;24.04;;;23.64;;
50417;SDS011;36346;48.280;14.292;2023-01-09T04:31:15;26.02;;;25.53;;
50417;SDS011;36346;48.280;14.292;2023-01-09T04:33:43;25.55;;;25.04;;
50417;SDS011;36346;48.280;14.292;2023-01-09T04:36:11;27.14;;;26.46;;
50417;SDS011;36346;48.280;14.292;2023-01-09T04:38:39;26.93;;;26.46;;
50417;SDS011;36346;48.280;14.292;2023-01-09T04:41:07;27.14;;;26.63;;
50417;SDS011;36346;48.280;14.292;2023-01-09T04:43:35;26.77;;;26.33;;
50417;SDS011;36346;48.280;14.292;2023-01-09T04:46:02;28.59;;;28.13;;
50417;SDS011;36346;48.280;14.292;2023-01-09T04:48:31;28.70;;;28.08;;
50417;SDS011;36346;48.280;14.292;2023-01-09T04:50:59;27.06;;;26.60;;
50417;SDS011;36346;48.280;14.292;2023-01-09T04:53:27;27.19;;;26.91;;
50417;SDS011;36346;48.280;14.292;2023-01-09T04:55:58;30.46;;;29.71;;
50417;SDS011;36346;48.280;14.292;2023-01-09T04:58:26;30.78;;;30.03;;
50417;SDS011;36346;48.280;14.292;2023-01-09T05:00:53;31.67;;;30.82;;
50417;SDS011;36346;48.280;14.292;2023-01-09T05:03:21;32.80;;;31.97;;
50417;SDS011;36346;48.280;14.292;2023-01-09T05:05:49;32.08;;;31.14;;
50417;SDS011;36346;48.280;14.292;2023-01-09T05:08:17;31.45;;;30.78;;
50417;SDS011;36346;48.280;14.292;2023-01-09T05:10:45;31.27;;;30.59;;
50417;SDS011;36346;48.280;14.292;2023-01-09T05:13:13;31.23;;;30.61;;
50417;SDS011;36346;48.280;14.292;2023-01-09T05:15:41;31.46;;;30.63;;
50417;SDS011;36346;48.280;14.292;2023-01-09T05:18:09;31.89;;;30.99;;
50417;SDS011;36346;48.280;14.292;2023-01-09T05:20:37;30.14;;;29.44;;
50417;SDS011;36346;48.280;14.292;2023-01-09T05:23:05;31.82;;;31.03;;
50417;SDS011;36346;48.280;14.292;2023-01-09T05:25:33;32.28;;;31.48;;
50417;SDS011;36346;48.280;14.292;2023-01-09T05:28:01;32.29;;;31.49;;
50417;SDS011;36346;48.280;14.292;2023-01-09T05:30:29;34.18;;;33.29;;
50417;SDS011;36346;48.280;14.292;2023-01-09T05:32:57;32.20;;;31.25;;
50417;SDS011;36346;48.280;14.292;2023-01-09T05:35:25;32.29;;;31.33;;
50417;SDS011;36346;48.280;14.292;2023-01-09T05:37:53;32.55;;;31.82;;
50417;SDS011;36346;48.280;14.292;2023-01-09T05:40:21;31.70;;;30.88;;
50417;SDS011;36346;48.280;14.292;2023-01-09T05:43:13;29.96;;;29.44;;
50417;SDS011;36346;48.280;14.292;2023-01-09T05:45:42;30.68;;;30.09;;
50417;SDS011;36346;48.280;14.292;2023-01-09T05:48:10;29.98;;;29.46;;
50417;SDS011;36346;48.280;14.292;2023-01-09T05:50:38;29.92;;;29.22;;
50417;SDS011;36346;48.280;14.292;2023-01-09T05:53:05;29.45;;;28.94;;
50417;SDS011;36346;48.280;14.292;2023-01-09T05:55:59;29.47;;;28.90;;
50417;SDS011;36346;48.280;14.292;2023-01-09T05:58:29;28.99;;;28.48;;
50417;SDS011;36346;48.280;14.292;2023-01-09T06:00:57;29.49;;;29.12;;
50417;SDS011;36346;48.280;14.292;2023-01-09T06:03:25;29.47;;;28.99;;
50417;SDS011;36346;48.280;14.292;2023-01-09T06:05:53;29.10;;;28.66;;
50417;SDS011;36346;48.280;14.292;2023-01-09T06:08:21;30.28;;;29.80;;
50417;SDS011;36346;48.280;14.292;2023-01-09T06:10:49;29.09;;;28.69;;
50417;SDS011;36346;48.280;14.292;2023-01-09T06:13:17;30.00;;;29.43;;
50417;SDS011;36346;48.280;14.292;2023-01-09T06:15:46;30.38;;;29.99;;
50417;SDS011;36346;48.280;14.292;2023-01-09T06:18:38;30.04;;;29.48;;
50417;SDS011;36346;48.280;14.292;2023-01-09T06:21:06;29.93;;;29.42;;
50417;SDS011;36346;48.280;14.292;2023-01-09T06:23:34;30.14;;;29.54;;
50417;SDS011;36346;48.280;14.292;2023-01-09T06:26:02;30.79;;;30.11;;
50417;SDS011;36346;48.280;14.292;2023-01-09T06:28:32;31.74;;;30.99;;
50417;SDS011;36346;48.280;14.292;2023-01-09T06:31:00;31.30;;;30.76;;
50417;SDS011;36346;48.280;14.292;2023-01-09T06:33:28;31.69;;;31.19;;
50417;SDS011;36346;48.280;14.292;2023-01-09T06:35:55;30.72;;;30.28;;
50417;SDS011;36346;48.280;14.292;2023-01-09T06:38:23;30.26;;;29.87;;
50417;SDS011;36346;48.280;14.292;2023-01-09T06:40:51;29.70;;;29.31;;
50417;SDS011;36346;48.280;14.292;2023-01-09T06:43:20;29.52;;;29.09;;
50417;SDS011;36346;48.280;14.292;2023-01-09T06:45:47;28.75;;;28.40;;
50417;SDS011;36346;48.280;14.292;2023-01-09T06:48:15;28.96;;;28.50;;
50417;SDS011;36346;48.280;14.292;2023-01-09T06:50:43;29.85;;;29.33;;
50417;SDS011;36346;48.280;14.292;2023-01-09T06:53:12;29.16;;;28.75;;
50417;SDS011;36346;48.280;14.292;2023-01-09T06:55:40;28.81;;;28.39;;
50417;SDS011;36346;48.280;14.292;2023-01-09T06:58:09;29.94;;;29.62;;
50417;SDS011;36346;48.280;14.292;2023-01-09T07:00:37;29.32;;;28.91;;
50417;SDS011;36346;48.280;14.292;2023-01-09T07:03:05;29.35;;;28.98;;
50417;SDS011;36346;48.280;14.292;2023-01-09T07:05:36;30.63;;;30.19;;
50417;SDS011;36346;48.280;14.292;2023-01-09T07:08:07;30.39;;;30.00;;
50417;SDS011;36346;48.280;14.292;2023-01-09T07:10:35;30.52;;;30.20;;
50417;SDS011;36346;48.280;14.292;2023-01-09T07:13:04;30.27;;;29.88;;
50417;SDS011;36346;48.280;14.292;2023-01-09T07:15:31;28.84;;;28.39;;
50417;SDS011;36346;48.280;14.292;2023-01-09T07:17:59;28.37;;;28.01;;
50417;SDS011;36346;48.280;14.292;2023-01-09T07:20:27;28.27;;;27.92;;
50417;SDS011;36346;48.280;14.292;2023-01-09T07:22:56;28.76;;;28.32;;
50417;SDS011;36346;48.280;14.292;2023-01-09T07:25:24;29.01;;;28.40;;
50417;SDS011;36346;48.280;14.292;2023-01-09T07:27:52;29.07;;;28.78;;
50417;SDS011;36346;48.280;14.292;2023-01-09T07:30:20;28.99;;;28.53;;
50417;SDS011;36346;48.280;14.292;2023-01-09T07:32:48;28.86;;;28.42;;
50417;SDS011;36346;48.280;14.292;2023-01-09T07:35:16;28.24;;;27.96;;
50417;SDS011;36346;48.280;14.292;2023-01-09T07:37:44;28.03;;;27.67;;
50417;SDS011;36346;48.280;14.292;2023-01-09T07:40:13;27.95;;;27.60;;
50417;SDS011;36346;48.280;14.292;2023-01-09T07:42:41;29.02;;;28.48;;
50417;SDS011;36346;48.280;14.292;2023-01-09T07:45:09;28.60;;;28.19;;
50417;SDS011;36346;48.280;14.292;2023-01-09T07:47:38;29.16;;;28.78;;
50417;SDS011;36346;48.280;14.292;2023-01-09T07:50:07;29.02;;;28.62;;
50417;SDS011;36346;48.280;14.292;2023-01-09T07:52:35;28.60;;;28.12;;
50417;SDS011;36346;48.280;14.292;2023-01-09T07:55:04;28.85;;;28.52;;
50417;SDS011;36346;48.280;14.292;2023-01-09T07:57:32;28.44;;;28.09;;
50417;SDS011;36346;48.280;14.292;2023-01-09T08:00:00;29.36;;;28.89;;
50417;SDS011;36346;48.280;14.292;2023-01-09T08:02:37;29.75;;;29.30;;
50417;SDS011;36346;48.280;14.292;2023-01-09T08:05:06;29.08;;;28.68;;
50417;SDS011;36346;48.280;14.292;2023-01-09T08:07:35;29.94;;;29.47;;
50417;SDS011;36346;48.280;14.292;2023-01-09T08:10:03;30.07;;;29.70;;
50417;SDS011;36346;48.280;14.292;2023-01-09T08:12:32;29.29;;;28.86;;
50417;SDS011;36346;48.280;14.292;2023-01-09T08:15:00;29.33;;;28.94;;
50417;SDS011;36346;48.280;14.292;2023-01-09T08:17:28;29.34;;;29.07;;
50417;SDS011;36346;48.280;14.292;2023-01-09T08:19:56;29.31;;;28.99;;
50417;SDS011;36346;48.280;14.292;2023-01-09T08:22:24;29.06;;;28.62;;
50417;SDS011;36346;48.280;14.292;2023-01-09T08:24:52;28.47;;;28.12;;
50417;SDS011;36346;48.280;14.292;2023-01-09T08:27:20;28.12;;;27.67;;
50417;SDS011;36346;48.280;14.292;2023-01-09T08:29:48;28.27;;;27.83;;
50417;SDS011;36346;48.280;14.292;2023-01-09T08:32:16;28.47;;;28.08;;
50417;SDS011;36346;48.280;14.292;2023-01-09T08:34:44;29.02;;;28.61;;
50417;SDS011;36346;48.280;14.292;2023-01-09T08:37:11;28.18;;;27.79;;
50417;SDS011;36346;48.280;14.292;2023-01-09T08:39:39;27.47;;;27.04;;
50417;SDS011;36346;48.280;14.292;2023-01-09T08:42:07;27.83;;;27.27;;
50417;SDS011;36346;48.280;14.292;2023-01-09T08:44:56;27.56;;;27.31;;
50417;SDS011;36346;48.280;14.292;2023-01-09T08:47:43;28.70;;;28.27;;
50417;SDS011;36346;48.280;14.292;2023-01-09T08:50:34;28.83;;;28.37;;
50417;SDS011;36346;48.280;14.292;2023-01-09T08:53:03;28.08;;;27.62;;
50417;SDS011;36346;48.280;14.292;2023-01-09T08:55:56;28.59;;;28.26;;
50417;SDS011;36346;48.280;14.292;2023-01-09T08:58:50;27.15;;;26.82;;
50417;SDS011;36346;48.280;14.292;2023-01-09T09:01:20;30.59;;;30.12;;
50417;SDS011;36346;48.280;14.292;2023-01-09T09:03:51;30.02;;;29.59;;
50417;SDS011;36346;48.280;14.292;2023-01-09T09:06:18;28.16;;;27.96;;
50417;SDS011;36346;48.280;14.292;2023-01-09T09:08:47;27.38;;;27.09;;
50417;SDS011;36346;48.280;14.292;2023-01-09T09:11:15;26.09;;;25.79;;
50417;SDS011;36346;48.280;14.292;2023-01-09T09:13:43;26.84;;;26.41;;
50417;SDS011;36346;48.280;14.292;2023-01-09T09:16:11;27.47;;;26.94;;
50417;SDS011;36346;48.280;14.292;2023-01-09T09:18:39;26.81;;;26.42;;
50417;SDS011;36346;48.280;14.292;2023-01-09T09:21:07;27.61;;;27.24;;
50417;SDS011;36346;48.280;14.292;2023-01-09T09:23:38;26.94;;;26.63;;
50417;SDS011;36346;48.280;14.292;2023-01-09T09:26:06;27.15;;;26.77;;
50417;SDS011;36346;48.280;14.292;2023-01-09T09:28:57;24.89;;;24.64;;
50417;SDS011;36346;48.280;14.292;2023-01-09T09:31:50;32.30;;;31.00;;
50417;SDS011;36346;48.280;14.292;2023-01-09T09:34:18;24.81;;;24.68;;
50417;SDS011;36346;48.280;14.292;2023-01-09T09:36:46;25.04;;;24.84;;
50417;SDS011;36346;48.280;14.292;2023-01-09T09:39:14;25.59;;;25.30;;
50417;SDS011;36346;48.280;14.292;2023-01-09T09:44:41;25.12;;;24.77;;
50417;SDS011;36346;48.280;14.292;2023-01-09T09:55:41;28.38;;;27.97;;
50417;SDS011;36346;48.280;14.292;2023-01-09T09:58:23;31.69;;;31.26;;
50417;SDS011;36346;48.280;14.292;2023-01-09T10:00:59;31.85;;;31.55;;
50417;SDS011;36346;48.280;14.292;2023-01-09T10:03:55;29.33;;;28.90;;
50417;SDS011;36346;48.280;14.292;2023-01-09T10:06:28;30.89;;;30.43;;
50417;SDS011;36346;48.280;14.292;2023-01-09T10:11:36;29.93;;;29.53;;
50417;SDS011;36346;48.280;14.292;2023-01-09T10:14:12;27.99;;;27.53;;
50417;SDS011;36346;48.280;14.292;2023-01-09T10:16:53;27.69;;;27.28;;
50417;SDS011;36346;48.280;14.292;2023-01-09T10:19:41;27.40;;;27.13;;
50417;SDS011;36346;48.280;14.292;2023-01-09T10:22:25;33.40;;;32.73;;
50417;SDS011;36346;48.280;14.292;2023-01-09T10:28:16;35.78;;;35.24;;
50417;SDS011;36346;48.280;14.292;2023-01-09T10:37:04;29.21;;;28.78;;
50417;SDS011;36346;48.280;14.292;2023-01-09T10:39:44;18.98;;;18.83;;
50417;SDS011;36346;48.280;14.292;2023-01-09T10:47:52;9.56;;;9.49;;
50417;SDS011;36346;48.280;14.292;2023-01-09T10:50:30;7.18;;;7.16;;
50417;SDS011;36346;48.280;14.292;2023-01-09T10:53:14;5.71;;;5.70;;
50417;SDS011;36346;48.280;14.292;2023-01-09T10:55:51;5.48;;;5.44;;
50417;SDS011;36346;48.280;14.292;2023-01-09T10:58:22;5.56;;;5.54;;
50417;SDS011;36346;48.280;14.292;2023-01-09T11:01:16;5.45;;;5.41;;
50417;SDS011;36346;48.280;14.292;2023-01-09T11:03:55;5.36;;;5.26;;
50417;SDS011;36346;48.280;14.292;2023-01-09T11:06:31;5.06;;;4.99;;
50417;SDS011;36346;48.280;14.292;2023-01-09T11:09:14;4.91;;;4.85;;
50417;SDS011;36346;48.280;14.292;2023-01-09T11:11:44;4.69;;;4.63;;
50417;SDS011;36346;48.280;14.292;2023-01-09T11:14:18;4.44;;;4.40;;
50417;SDS011;36346;48.280;14.292;2023-01-09T11:16:55;4.13;;;4.08;;
50417;SDS011;36346;48.280;14.292;2023-01-09T11:19:25;3.54;;;3.50;;
50417;SDS011;36346;48.280;14.292;2023-01-09T11:22:18;2.36;;;2.34;;
50417;SDS011;36346;48.280;14.292;2023-01-09T11:25:00;1.99;;;1.98;;
50417;SDS011;36346;48.280;14.292;2023-01-09T11:27:29;1.52;;;1.52;;
50417;SDS011;36346;48.280;14.292;2023-01-09T11:33:16;0.96;;;0.96;;
50417;SDS011;36346;48.280;14.292;2023-01-09T11:38:43;0.96;;;0.95;;
50417;SDS011;36346;48.280;14.292;2023-01-09T11:41:38;0.87;;;0.86;;
50417;SDS011;36346;48.280;14.292;2023-01-09T11:44:09;1.08;;;1.07;;
50417;SDS011;36346;48.280;14.292;2023-01-09T11:46:41;1.01;;;0.99;;
50417;SDS011;36346;48.280;14.292;2023-01-09T11:51:40;0.80;;;0.79;;
50417;SDS011;36346;48.280;14.292;2023-01-09T11:54:19;0.96;;;0.94;;
50417;SDS011;36346;48.280;14.292;2023-01-09T11:56:52;0.98;;;0.96;;
50417;SDS011;36346;48.280;14.292;2023-01-09T11:59:29;2.23;;;2.19;;
50417;SDS011;36346;48.280;14.292;2023-01-09T12:02:03;1.92;;;1.89;;
50417;SDS011;36346;48.280;14.292;2023-01-09T12:04:49;1.16;;;1.14;;
50417;SDS011;36346;48.280;14.292;2023-01-09T12:13:26;1.33;;;1.30;;
50417;SDS011;36346;48.280;14.292;2023-01-09T12:21:34;1.20;;;1.19;;
50417;SDS011;36346;48.280;14.292;2023-01-09T12:24:20;0.94;;;0.94;;
50417;SDS011;36346;48.280;14.292;2023-01-09T12:30:25;0.93;;;0.92;;
50417;SDS011;36346;48.280;14.292;2023-01-09T12:35:39;0.98;;;0.98;;
50417;SDS011;36346;48.280;14.292;2023-01-09T12:38:23;1.18;;;1.17;;
50417;SDS011;36346;48.280;14.292;2023-01-09T12:46:23;1.24;;;1.21;;
50417;SDS011;36346;48.280;14.292;2023-01-09T12:51:42;1.35;;;1.34;;
50417;SDS011;36346;48.280;14.292;2023-01-09T12:56:56;1.42;;;1.41;;
50417;SDS011;36346;48.280;14.292;2023-01-09T12:59:41;1.75;;;1.73;;
50417;SDS011;36346;48.280;14.292;2023-01-09T13:05:41;1.91;;;1.88;;
50417;SDS011;36346;48.280;14.292;2023-01-09T13:08:23;1.66;;;1.64;;
50417;SDS011;36346;48.280;14.292;2023-01-09T13:14:53;1.77;;;1.75;;
50417;SDS011;36346;48.280;14.292;2023-01-09T13:17:01;2.61;;;2.59;;
50417;SDS011;36346;48.280;14.292;2023-01-09T13:19:34;2.06;;;2.04;;
50417;SDS011;36346;48.280;14.292;2023-01-09T13:22:06;2.38;;;2.36;;
50417;SDS011;36346;48.280;14.292;2023-01-09T13:27:13;2.51;;;2.48;;
50417;SDS011;36346;48.280;14.292;2023-01-09T13:29:45;3.12;;;3.09;;
50417;SDS011;36346;48.280;14.292;2023-01-09T13:34:53;2.49;;;2.47;;
50417;SDS011;36346;48.280;14.292;2023-01-09T13:37:27;2.16;;;2.13;;
50417;SDS011;36346;48.280;14.292;2023-01-09T13:39:59;2.30;;;2.26;;
50417;SDS011;36346;48.280;14.292;2023-01-09T13:42:29;3.35;;;3.27;;
50417;SDS011;36346;48.280;14.292;2023-01-09T13:47:45;2.34;;;2.31;;
50417;SDS011;36346;48.280;14.292;2023-01-09T13:50:21;2.33;;;2.28;;
50417;SDS011;36346;48.280;14.292;2023-01-09T13:52:53;2.68;;;2.61;;
50417;SDS011;36346;48.280;14.292;2023-01-09T13:55:22;3.14;;;3.03;;
50417;SDS011;36346;48.280;14.292;2023-01-09T14:03:18;3.47;;;3.34;;
50417;SDS011;36346;48.280;14.292;2023-01-09T14:08:24;4.54;;;4.36;;
50417;SDS011;36346;48.280;14.292;2023-01-09T14:10:58;4.47;;;4.35;;
50417;SDS011;36346;48.280;14.292;2023-01-09T14:13:29;4.66;;;4.59;;
50417;SDS011;36346;48.280;14.292;2023-01-09T14:16:03;3.69;;;3.66;;
50417;SDS011;36346;48.280;14.292;2023-01-09T14:18:37;3.51;;;3.47;;
50417;SDS011;36346;48.280;14.292;2023-01-09T14:21:09;3.57;;;3.51;;
50417;SDS011;36346;48.280;14.292;2023-01-09T14:23:48;3.37;;;3.31;;
50417;SDS011;36346;48.280;14.292;2023-01-09T14:26:41;3.24;;;3.19;;
50417;SDS011;36346;48.280;14.292;2023-01-09T14:34:56;2.90;;;2.89;;
50417;SDS011;36346;48.280;14.292;2023-01-09T14:37:32;3.15;;;3.14;;
50417;SDS011;36346;48.280;14.292;2023-01-09T14:40:05;3.22;;;3.20;;
50417;SDS011;36346;48.280;14.292;2023-01-09T14:42:34;2.95;;;2.95;;
50417;SDS011;36346;48.280;14.292;2023-01-09T14:45:14;3.29;;;3.27;;
50417;SDS011;36346;48.280;14.292;2023-01-09T14:47:50;3.17;;;3.16;;
50417;SDS011;36346;48.280;14.292;2023-01-09T14:50:24;3.06;;;3.05;;
50417;SDS011;36346;48.280;14.292;2023-01-09T14:55:34;2.97;;;2.96;;
50417;SDS011;36346;48.280;14.292;2023-01-09T14:58:21;2.57;;;2.57;;
50417;SDS011;36346;48.280;14.292;2023-01-09T15:03:20;2.55;;;2.53;;
50417;SDS011;36346;48.280;14.292;2023-01-09T15:05:50;2.51;;;2.49;;
50417;SDS011;36346;48.280;14.292;2023-01-09T15:08:21;2.48;;;2.43;;
50417;SDS011;36346;48.280;14.292;2023-01-09T15:10:53;2.60;;;2.54;;
50417;SDS011;36346;48.280;14.292;2023-01-09T15:13:36;2.66;;;2.60;;
50417;SDS011;36346;48.280;14.292;2023-01-09T15:16:19;2.22;;;2.15;;
50417;SDS011;36346;48.280;14.292;2023-01-09T15:18:51;2.50;;;2.38;;
50417;SDS011;36346;48.280;14.292;2023-01-09T15:21:23;2.47;;;2.36;;
50417;SDS011;36346;48.280;14.292;2023-01-09T15:23:53;2.82;;;2.69;;
50417;SDS011;36346;48.280;14.292;2023-01-09T15:32:00;3.94;;;3.83;;
50417;SDS011;36346;48.280;14.292;2023-01-09T15:34:44;5.29;;;5.23;;
50417;SDS011;36346;48.280;14.292;2023-01-09T15:39:57;5.80;;;5.73;;
50417;SDS011;36346;48.280;14.292;2023-01-09T15:42:32;4.97;;;4.92;;
50417;SDS011;36346;48.280;14.292;2023-01-09T15:45:39;5.25;;;5.19;;
50417;SDS011;36346;48.280;14.292;2023-01-09T15:51:05;4.82;;;4.79;;
50417;SDS011;36346;48.280;14.292;2023-01-09T15:53:38;5.92;;;5.87;;
50417;SDS011;36346;48.280;14.292;2023-01-09T15:58:39;7.13;;;7.06;;
50417;SDS011;36346;48.280;14.292;2023-01-09T16:06:48;12.78;;;12.50;;
50417;SDS011;36346;48.280;14.292;2023-01-09T16:09:19;13.94;;;13.53;;
50417;SDS011;36346;48.280;14.292;2023-01-09T16:11:55;11.30;;;11.08;;
50417;SDS011;36346;48.280;14.292;2023-01-09T16:14:37;12.81;;;12.34;;
50417;SDS011;36346;48.280;14.292;2023-01-09T16:17:13;14.23;;;13.70;;
50417;SDS011;36346;48.280;14.292;2023-01-09T16:22:25;15.58;;;15.00;;
50417;SDS011;36346;48.280;14.292;2023-01-09T16:24:56;11.19;;;10.91;;
50417;SDS011;36346;48.280;14.292;2023-01-09T16:27:26;10.70;;;10.53;;
50417;SDS011;36346;48.280;14.292;2023-01-09T16:32:44;10.60;;;10.54;;
50417;SDS011;36346;48.280;14.292;2023-01-09T16:35:14;10.57;;;10.51;;
50417;SDS011;36346;48.280;14.292;2023-01-09T16:37:45;9.66;;;9.64;;
50417;SDS011;36346;48.280;14.292;2023-01-09T16:42:42;7.80;;;7.77;;
50417;SDS011;36346;48.280;14.292;2023-01-09T16:45:36;7.43;;;7.42;;
50417;SDS011;36346;48.280;14.292;2023-01-09T16:48:16;7.43;;;7.39;;
50417;SDS011;36346;48.280;14.292;2023-01-09T16:50:47;6.29;;;6.26;;
50417;SDS011;36346;48.280;14.292;2023-01-09T16:53:19;5.72;;;5.69;;
50417;SDS011;36346;48.280;14.292;2023-01-09T16:55:51;5.63;;;5.57;;
50417;SDS011;36346;48.280;14.292;2023-01-09T16:58:27;5.23;;;5.13;;
50417;SDS011;36346;48.280;14.292;2023-01-09T17:00:57;5.22;;;5.12;;
50417;SDS011;36346;48.280;14.292;2023-01-09T17:03:25;4.76;;;4.72;;
50417;SDS011;36346;48.280;14.292;2023-01-09T17:05:54;4.51;;;4.51;;
50417;SDS011;36346;48.280;14.292;2023-01-09T17:08:27;4.73;;;4.72;;
50417;SDS011;36346;48.280;14.292;2023-01-09T17:10:57;4.54;;;4.51;;
50417;SDS011;36346;48.280;14.292;2023-01-09T17:13:25;4.13;;;4.09;;
50417;SDS011;36346;48.280;14.292;2023-01-09T17:15:54;4.15;;;4.10;;
50417;SDS011;36346;48.280;14.292;2023-01-09T17:18:24;4.23;;;4.15;;
50417;SDS011;36346;48.280;14.292;2023-01-09T17:20:55;4.13;;;4.06;;
50417;SDS011;36346;48.280;14.292;2023-01-09T17:23:25;4.10;;;4.01;;
50417;SDS011;36346;48.280;14.292;2023-01-09T17:25:53;3.96;;;3.91;;
50417;SDS011;36346;48.280;14.292;2023-01-09T17:28:47;3.79;;;3.76;;
50417;SDS011;36346;48.280;14.292;2023-01-09T17:31:16;4.29;;;4.23;;